sensor_id;sensor_type;location;lat;lon;timestamp;P1;durP1;ratioP1;P2;durP2;ratioP2
61003;SDS011;46889;37.310;13.582;2023-01-31T08:56:41;10.00;;;2.53;;
61003;SDS011;46889;37.310;13.582;2023-01-31T08:59:08;10.07;;;2.90;;
61003;SDS011;46889;37.310;13.582;2023-01-31T09:01:35;11.30;;;2.60;;
61003;SDS011;46889;37.310;13.582;2023-01-31T09:04:03;9.60;;;2.50;;
61003;SDS011;46889;37.310;13.582;2023-01-31T09:06:29;9.63;;;2.92;;
61003;SDS011;46889;37.310;13.582;2023-01-31T09:08:55;7.10;;;2.25;;
61003;SDS011;46889;37.310;13.582;2023-01-31T09:11:23;5.20;;;1.75;;
61003;SDS011;46889;37.310;13.582;2023-01-31T09:13:53;6.45;;;1.70;;
61003;SDS011;46889;37.310;13.582;2023-01-31T09:16:19;7.83;;;2.03;;
61003;SDS011;46889;37.310;13.582;2023-01-31T09:18:45;7.07;;;1.70;;
61003;SDS011;46889;37.310;13.582;2023-01-31T09:21:15;10.50;;;2.05;;
61003;SDS011;46889;37.310;13.582;2023-01-31T09:23:43;9.60;;;1.80;;
61003;SDS011;46889;37.310;13.582;2023-01-31T09:26:10;10.50;;;1.88;;
61003;SDS011;46889;37.310;13.582;2023-01-31T09:28:36;7.47;;;1.75;;
61003;SDS011;46889;37.310;13.582;2023-01-31T09:31:08;15.85;;;1.73;;
61003;SDS011;46889;37.310;13.582;2023-01-31T09:33:39;5.72;;;1.50;;
61003;SDS011;46889;37.310;13.582;2023-01-31T09:36:07;5.45;;;1.52;;
61003;SDS011;46889;37.310;13.582;2023-01-31T09:38:36;11.80;;;1.77;;
61003;SDS011;46889;37.310;13.582;2023-01-31T09:41:22;6.93;;;1.63;;
61003;SDS011;46889;37.310;13.582;2023-01-31T09:46:19;9.15;;;1.88;;
61003;SDS011;46889;37.310;13.582;2023-01-31T09:48:50;6.72;;;1.60;;
61003;SDS011;46889;37.310;13.582;2023-01-31T09:51:19;6.25;;;1.92;;
61003;SDS011;46889;37.310;13.582;2023-01-31T09:53:46;7.25;;;1.80;;
61003;SDS011;46889;37.310;13.582;2023-01-31T09:58:55;5.88;;;2.10;;
61003;SDS011;46889;37.310;13.582;2023-01-31T10:07:52;6.72;;;1.83;;
61003;SDS011;46889;37.310;13.582;2023-01-31T10:10:36;11.85;;;2.13;;
61003;SDS011;46889;37.310;13.582;2023-01-31T10:15:51;8.10;;;2.00;;
61003;SDS011;46889;37.310;13.582;2023-01-31T10:18:23;11.35;;;2.10;;
61003;SDS011;46889;37.310;13.582;2023-01-31T10:20:57;9.60;;;1.95;;
61003;SDS011;46889;37.310;13.582;2023-01-31T10:23:58;7.55;;;2.30;;
61003;SDS011;46889;37.310;13.582;2023-01-31T10:26:31;10.93;;;2.00;;
61003;SDS011;46889;37.310;13.582;2023-01-31T10:29:18;6.95;;;2.08;;
61003;SDS011;46889;37.310;13.582;2023-01-31T10:31:57;4.95;;;1.60;;
61003;SDS011;46889;37.310;13.582;2023-01-31T10:34:39;10.57;;;2.67;;
61003;SDS011;46889;37.310;13.582;2023-01-31T10:37:15;5.60;;;1.83;;
61003;SDS011;46889;37.310;13.582;2023-01-31T10:39:51;10.90;;;2.40;;
61003;SDS011;46889;37.310;13.582;2023-01-31T10:47:32;9.07;;;1.92;;
61003;SDS011;46889;37.310;13.582;2023-01-31T10:50:00;8.32;;;2.25;;
61003;SDS011;46889;37.310;13.582;2023-01-31T10:57:48;5.03;;;1.60;;
61003;SDS011;46889;37.310;13.582;2023-01-31T11:00:18;9.13;;;2.00;;
61003;SDS011;46889;37.310;13.582;2023-01-31T11:02:47;8.40;;;1.63;;
61003;SDS011;46889;37.310;13.582;2023-01-31T11:05:15;6.93;;;1.60;;
61003;SDS011;46889;37.310;13.582;2023-01-31T11:07:44;5.90;;;1.80;;
61003;SDS011;46889;37.310;13.582;2023-01-31T11:10:22;9.90;;;1.80;;
61003;SDS011;46889;37.310;13.582;2023-01-31T11:12:52;7.80;;;1.55;;
61003;SDS011;46889;37.310;13.582;2023-01-31T11:15:38;10.05;;;1.80;;
61003;SDS011;46889;37.310;13.582;2023-01-31T11:18:08;5.75;;;1.48;;
61003;SDS011;46889;37.310;13.582;2023-01-31T11:20:50;6.70;;;1.50;;
61003;SDS011;46889;37.310;13.582;2023-01-31T11:23:24;9.52;;;1.63;;
61003;SDS011;46889;37.310;13.582;2023-01-31T11:25:53;5.60;;;1.70;;
61003;SDS011;46889;37.310;13.582;2023-01-31T11:28:22;6.80;;;1.67;;
61003;SDS011;46889;37.310;13.582;2023-01-31T11:30:50;10.73;;;1.80;;
61003;SDS011;46889;37.310;13.582;2023-01-31T11:33:37;10.18;;;1.50;;
61003;SDS011;46889;37.310;13.582;2023-01-31T11:36:08;9.63;;;2.03;;
61003;SDS011;46889;37.310;13.582;2023-01-31T11:38:38;8.55;;;1.80;;
61003;SDS011;46889;37.310;13.582;2023-01-31T11:49:21;7.28;;;1.38;;
61003;SDS011;46889;37.310;13.582;2023-01-31T11:54:44;4.40;;;1.85;;
61003;SDS011;46889;37.310;13.582;2023-01-31T11:57:13;4.20;;;1.40;;
61003;SDS011;46889;37.310;13.582;2023-01-31T11:59:41;6.32;;;1.80;;
61003;SDS011;46889;37.310;13.582;2023-01-31T12:02:21;4.97;;;1.55;;
61003;SDS011;46889;37.310;13.582;2023-01-31T12:05:13;8.27;;;1.60;;
61003;SDS011;46889;37.310;13.582;2023-01-31T12:07:46;3.40;;;1.40;;
61003;SDS011;46889;37.310;13.582;2023-01-31T12:12:50;7.60;;;1.60;;
61003;SDS011;46889;37.310;13.582;2023-01-31T12:15:17;5.03;;;1.38;;
61003;SDS011;46889;37.310;13.582;2023-01-31T12:17:44;5.50;;;1.38;;
61003;SDS011;46889;37.310;13.582;2023-01-31T12:20:21;6.97;;;1.77;;
61003;SDS011;46889;37.310;13.582;2023-01-31T12:22:59;7.82;;;1.65;;
61003;SDS011;46889;37.310;13.582;2023-01-31T12:34:11;5.78;;;1.30;;
61003;SDS011;46889;37.310;13.582;2023-01-31T12:51:03;9.48;;;1.65;;
61003;SDS011;46889;37.310;13.582;2023-01-31T12:53:50;6.28;;;1.70;;
61003;SDS011;46889;37.310;13.582;2023-01-31T13:04:38;8.07;;;2.00;;
61003;SDS011;46889;37.310;13.582;2023-01-31T13:07:23;5.80;;;2.20;;
61003;SDS011;46889;37.310;13.582;2023-01-31T13:10:01;9.75;;;1.88;;
61003;SDS011;46889;37.310;13.582;2023-01-31T13:12:32;6.15;;;1.60;;
61003;SDS011;46889;37.310;13.582;2023-01-31T13:17:38;10.45;;;3.20;;
61003;SDS011;46889;37.310;13.582;2023-01-31T13:23:03;8.90;;;2.67;;
61003;SDS011;46889;37.310;13.582;2023-01-31T13:25:40;9.15;;;2.60;;
61003;SDS011;46889;37.310;13.582;2023-01-31T13:30:51;9.45;;;2.30;;
61003;SDS011;46889;37.310;13.582;2023-01-31T13:36:23;8.57;;;2.10;;
61003;SDS011;46889;37.310;13.582;2023-01-31T13:38:59;6.95;;;1.98;;
61003;SDS011;46889;37.310;13.582;2023-01-31T13:41:32;11.65;;;1.85;;
61003;SDS011;46889;37.310;13.582;2023-01-31T13:43:59;9.23;;;1.90;;
61003;SDS011;46889;37.310;13.582;2023-01-31T13:46:35;6.68;;;1.63;;
61003;SDS011;46889;37.310;13.582;2023-01-31T13:49:08;6.25;;;1.73;;
61003;SDS011;46889;37.310;13.582;2023-01-31T13:51:47;10.00;;;1.80;;
61003;SDS011;46889;37.310;13.582;2023-01-31T13:54:20;5.90;;;1.70;;
61003;SDS011;46889;37.310;13.582;2023-01-31T13:56:54;7.57;;;2.70;;
61003;SDS011;46889;37.310;13.582;2023-01-31T13:59:41;8.15;;;2.10;;
61003;SDS011;46889;37.310;13.582;2023-01-31T14:02:18;8.38;;;2.20;;
61003;SDS011;46889;37.310;13.582;2023-01-31T14:04:45;12.73;;;2.40;;
61003;SDS011;46889;37.310;13.582;2023-01-31T14:07:13;13.65;;;2.30;;
61003;SDS011;46889;37.310;13.582;2023-01-31T14:14:51;15.57;;;2.50;;
61003;SDS011;46889;37.310;13.582;2023-01-31T14:22:27;13.27;;;2.50;;
61003;SDS011;46889;37.310;13.582;2023-01-31T14:27:37;10.50;;;2.13;;
61003;SDS011;46889;37.310;13.582;2023-01-31T14:30:20;12.50;;;3.03;;
61003;SDS011;46889;37.310;13.582;2023-01-31T14:33:04;10.52;;;1.90;;
61003;SDS011;46889;37.310;13.582;2023-01-31T14:53:30;6.60;;;2.17;;
61003;SDS011;46889;37.310;13.582;2023-01-31T14:56:12;9.98;;;1.98;;
61003;SDS011;46889;37.310;13.582;2023-01-31T14:59:00;7.10;;;1.77;;
61003;SDS011;46889;37.310;13.582;2023-01-31T15:01:33;8.80;;;2.00;;
61003;SDS011;46889;37.310;13.582;2023-01-31T15:04:02;7.55;;;2.25;;
61003;SDS011;46889;37.310;13.582;2023-01-31T15:06:33;7.40;;;1.85;;
61003;SDS011;46889;37.310;13.582;2023-01-31T15:11:43;10.82;;;2.33;;
61003;SDS011;46889;37.310;13.582;2023-01-31T15:14:31;8.57;;;2.42;;
61003;SDS011;46889;37.310;13.582;2023-01-31T15:17:07;9.32;;;2.42;;
61003;SDS011;46889;37.310;13.582;2023-01-31T15:20:05;8.27;;;2.30;;
61003;SDS011;46889;37.310;13.582;2023-01-31T15:22:40;8.80;;;2.70;;
61003;SDS011;46889;37.310;13.582;2023-01-31T15:25:20;12.05;;;2.55;;
61003;SDS011;46889;37.310;13.582;2023-01-31T15:27:56;8.52;;;2.10;;
61003;SDS011;46889;37.310;13.582;2023-01-31T15:30:24;6.82;;;2.10;;
61003;SDS011;46889;37.310;13.582;2023-01-31T15:33:01;9.55;;;2.33;;
61003;SDS011;46889;37.310;13.582;2023-01-31T15:38:53;9.43;;;2.28;;
61003;SDS011;46889;37.310;13.582;2023-01-31T15:41:18;5.28;;;2.20;;
61003;SDS011;46889;37.310;13.582;2023-01-31T15:44:06;7.93;;;2.15;;
61003;SDS011;46889;37.310;13.582;2023-01-31T15:46:48;4.72;;;1.85;;
61003;SDS011;46889;37.310;13.582;2023-01-31T15:54:56;5.85;;;1.88;;
61003;SDS011;46889;37.310;13.582;2023-01-31T15:57:25;8.75;;;1.85;;
61003;SDS011;46889;37.310;13.582;2023-01-31T15:59:56;7.07;;;2.30;;
61003;SDS011;46889;37.310;13.582;2023-01-31T16:02:29;9.50;;;2.47;;
61003;SDS011;46889;37.310;13.582;2023-01-31T16:05:05;7.75;;;2.13;;
61003;SDS011;46889;37.310;13.582;2023-01-31T16:07:32;10.20;;;2.25;;
61003;SDS011;46889;37.310;13.582;2023-01-31T16:09:59;8.15;;;2.55;;
61003;SDS011;46889;37.310;13.582;2023-01-31T16:12:26;6.70;;;2.70;;
61003;SDS011;46889;37.310;13.582;2023-01-31T16:14:54;9.25;;;3.25;;
61003;SDS011;46889;37.310;13.582;2023-01-31T16:17:26;8.98;;;3.13;;
61003;SDS011;46889;37.310;13.582;2023-01-31T16:19:53;11.10;;;3.10;;
61003;SDS011;46889;37.310;13.582;2023-01-31T16:22:27;12.38;;;3.65;;
61003;SDS011;46889;37.310;13.582;2023-01-31T16:24:57;8.65;;;3.15;;
61003;SDS011;46889;37.310;13.582;2023-01-31T16:27:34;11.18;;;3.60;;
61003;SDS011;46889;37.310;13.582;2023-01-31T16:30:03;11.80;;;2.95;;
61003;SDS011;46889;37.310;13.582;2023-01-31T16:32:31;9.43;;;2.90;;
61003;SDS011;46889;37.310;13.582;2023-01-31T16:35:18;12.60;;;3.33;;
61003;SDS011;46889;37.310;13.582;2023-01-31T16:37:57;8.43;;;2.97;;
61003;SDS011;46889;37.310;13.582;2023-01-31T16:40:34;16.67;;;4.03;;
61003;SDS011;46889;37.310;13.582;2023-01-31T16:43:19;13.33;;;3.90;;
61003;SDS011;46889;37.310;13.582;2023-01-31T16:45:54;11.45;;;3.63;;
61003;SDS011;46889;37.310;13.582;2023-01-31T16:50:56;11.10;;;2.88;;
61003;SDS011;46889;37.310;13.582;2023-01-31T16:53:25;17.88;;;7.15;;
61003;SDS011;46889;37.310;13.582;2023-01-31T16:56:28;13.95;;;3.78;;
61003;SDS011;46889;37.310;13.582;2023-01-31T16:58:52;12.77;;;4.03;;
61003;SDS011;46889;37.310;13.582;2023-01-31T17:01:24;9.57;;;5.60;;
61003;SDS011;46889;37.310;13.582;2023-01-31T17:06:27;8.07;;;3.13;;
61003;SDS011;46889;37.310;13.582;2023-01-31T17:08:55;8.82;;;2.70;;
61003;SDS011;46889;37.310;13.582;2023-01-31T17:11:22;10.07;;;2.70;;
61003;SDS011;46889;37.310;13.582;2023-01-31T17:13:49;9.23;;;2.97;;
61003;SDS011;46889;37.310;13.582;2023-01-31T17:16:17;9.50;;;2.40;;
61003;SDS011;46889;37.310;13.582;2023-01-31T17:18:51;7.65;;;3.03;;
61003;SDS011;46889;37.310;13.582;2023-01-31T17:21:19;9.82;;;2.60;;
61003;SDS011;46889;37.310;13.582;2023-01-31T17:23:47;9.27;;;3.30;;
61003;SDS011;46889;37.310;13.582;2023-01-31T17:26:15;10.32;;;3.20;;
61003;SDS011;46889;37.310;13.582;2023-01-31T17:28:46;12.27;;;3.20;;
61003;SDS011;46889;37.310;13.582;2023-01-31T17:31:19;9.43;;;2.90;;
61003;SDS011;46889;37.310;13.582;2023-01-31T17:33:47;13.45;;;3.15;;
61003;SDS011;46889;37.310;13.582;2023-01-31T17:36:14;13.13;;;3.25;;
61003;SDS011;46889;37.310;13.582;2023-01-31T17:38:41;8.57;;;3.58;;
61003;SDS011;46889;37.310;13.582;2023-01-31T17:41:14;7.13;;;3.08;;
61003;SDS011;46889;37.310;13.582;2023-01-31T17:43:42;9.10;;;3.00;;
61003;SDS011;46889;37.310;13.582;2023-01-31T17:46:10;12.77;;;3.35;;
61003;SDS011;46889;37.310;13.582;2023-01-31T17:48:39;7.50;;;3.25;;
61003;SDS011;46889;37.310;13.582;2023-01-31T17:53:31;8.77;;;2.93;;
61003;SDS011;46889;37.310;13.582;2023-01-31T17:55:58;10.18;;;3.00;;
61003;SDS011;46889;37.310;13.582;2023-01-31T17:58:24;12.00;;;3.92;;
61003;SDS011;46889;37.310;13.582;2023-01-31T18:03:24;12.77;;;4.53;;
61003;SDS011;46889;37.310;13.582;2023-01-31T18:05:51;10.93;;;3.70;;
61003;SDS011;46889;37.310;13.582;2023-01-31T18:08:17;12.02;;;3.58;;
61003;SDS011;46889;37.310;13.582;2023-01-31T18:10:44;9.48;;;3.63;;
61003;SDS011;46889;37.310;13.582;2023-01-31T18:13:10;12.95;;;4.18;;
61003;SDS011;46889;37.310;13.582;2023-01-31T18:15:37;10.95;;;3.50;;
61003;SDS011;46889;37.310;13.582;2023-01-31T18:20:36;6.22;;;3.20;;
61003;SDS011;46889;37.310;13.582;2023-01-31T18:23:06;8.48;;;3.33;;
61003;SDS011;46889;37.310;13.582;2023-01-31T18:25:33;8.50;;;3.63;;
61003;SDS011;46889;37.310;13.582;2023-01-31T18:27:59;11.20;;;3.70;;
61003;SDS011;46889;37.310;13.582;2023-01-31T18:30:25;10.52;;;3.40;;
61003;SDS011;46889;37.310;13.582;2023-01-31T18:32:51;11.93;;;3.45;;
61003;SDS011;46889;37.310;13.582;2023-01-31T18:35:17;15.17;;;4.17;;
61003;SDS011;46889;37.310;13.582;2023-01-31T18:37:45;12.73;;;3.60;;
61003;SDS011;46889;37.310;13.582;2023-01-31T18:42:38;10.38;;;3.20;;
61003;SDS011;46889;37.310;13.582;2023-01-31T18:45:04;9.82;;;3.20;;
61003;SDS011;46889;37.310;13.582;2023-01-31T18:47:31;10.10;;;3.85;;
61003;SDS011;46889;37.310;13.582;2023-01-31T18:49:58;11.73;;;3.38;;
61003;SDS011;46889;37.310;13.582;2023-01-31T18:52:25;9.05;;;3.33;;
61003;SDS011;46889;37.310;13.582;2023-01-31T18:54:51;9.10;;;3.03;;
61003;SDS011;46889;37.310;13.582;2023-01-31T18:57:18;7.95;;;2.90;;
61003;SDS011;46889;37.310;13.582;2023-01-31T18:59:44;10.73;;;2.77;;
61003;SDS011;46889;37.310;13.582;2023-01-31T19:02:10;11.70;;;4.40;;
61003;SDS011;46889;37.310;13.582;2023-01-31T19:04:36;9.97;;;3.47;;
61003;SDS011;46889;37.310;13.582;2023-01-31T19:07:02;9.53;;;3.60;;
61003;SDS011;46889;37.310;13.582;2023-01-31T19:11:55;9.75;;;3.10;;
61003;SDS011;46889;37.310;13.582;2023-01-31T19:14:21;7.37;;;2.90;;
61003;SDS011;46889;37.310;13.582;2023-01-31T19:16:47;7.60;;;3.10;;
61003;SDS011;46889;37.310;13.582;2023-01-31T19:19:13;10.30;;;3.37;;
61003;SDS011;46889;37.310;13.582;2023-01-31T19:21:39;9.13;;;3.33;;
61003;SDS011;46889;37.310;13.582;2023-01-31T19:24:08;6.87;;;3.43;;
61003;SDS011;46889;37.310;13.582;2023-01-31T19:26:36;9.20;;;3.30;;
61003;SDS011;46889;37.310;13.582;2023-01-31T19:29:03;6.72;;;2.85;;
61003;SDS011;46889;37.310;13.582;2023-01-31T19:31:30;6.15;;;2.92;;
61003;SDS011;46889;37.310;13.582;2023-01-31T19:33:58;10.13;;;3.10;;
61003;SDS011;46889;37.310;13.582;2023-01-31T19:36:30;6.60;;;2.70;;
61003;SDS011;46889;37.310;13.582;2023-01-31T19:38:59;10.05;;;2.88;;
61003;SDS011;46889;37.310;13.582;2023-01-31T19:41:28;9.48;;;3.00;;
61003;SDS011;46889;37.310;13.582;2023-01-31T19:43:56;9.88;;;2.63;;
61003;SDS011;46889;37.310;13.582;2023-01-31T19:46:24;8.98;;;2.88;;
61003;SDS011;46889;37.310;13.582;2023-01-31T19:48:52;9.43;;;2.97;;
61003;SDS011;46889;37.310;13.582;2023-01-31T19:51:20;5.25;;;2.45;;
61003;SDS011;46889;37.310;13.582;2023-01-31T19:56:13;5.88;;;2.55;;
61003;SDS011;46889;37.310;13.582;2023-01-31T19:58:40;8.57;;;2.50;;
61003;SDS011;46889;37.310;13.582;2023-01-31T20:01:08;7.43;;;2.53;;
61003;SDS011;46889;37.310;13.582;2023-01-31T20:03:36;5.95;;;2.20;;
61003;SDS011;46889;37.310;13.582;2023-01-31T20:06:04;9.75;;;2.85;;
61003;SDS011;46889;37.310;13.582;2023-01-31T20:08:35;8.07;;;2.25;;
61003;SDS011;46889;37.310;13.582;2023-01-31T20:11:02;7.80;;;2.33;;
61003;SDS011;46889;37.310;13.582;2023-01-31T20:13:32;9.52;;;2.70;;
61003;SDS011;46889;37.310;13.582;2023-01-31T20:16:03;9.93;;;2.25;;
61003;SDS011;46889;37.310;13.582;2023-01-31T20:18:31;6.03;;;2.55;;
61003;SDS011;46889;37.310;13.582;2023-01-31T20:20:58;5.68;;;2.13;;
61003;SDS011;46889;37.310;13.582;2023-01-31T20:23:24;6.43;;;2.50;;
61003;SDS011;46889;37.310;13.582;2023-01-31T20:25:51;8.32;;;2.75;;
61003;SDS011;46889;37.310;13.582;2023-01-31T20:28:19;7.30;;;2.70;;
61003;SDS011;46889;37.310;13.582;2023-01-31T20:30:45;7.28;;;2.40;;
61003;SDS011;46889;37.310;13.582;2023-01-31T20:33:12;8.00;;;2.63;;
61003;SDS011;46889;37.310;13.582;2023-01-31T20:38:08;9.18;;;2.85;;
61003;SDS011;46889;37.310;13.582;2023-01-31T20:40:35;9.02;;;2.45;;
61003;SDS011;46889;37.310;13.582;2023-01-31T20:43:02;8.65;;;2.40;;
61003;SDS011;46889;37.310;13.582;2023-01-31T20:45:30;6.95;;;2.47;;
61003;SDS011;46889;37.310;13.582;2023-01-31T20:47:58;4.60;;;2.25;;
61003;SDS011;46889;37.310;13.582;2023-01-31T20:52:54;6.88;;;2.20;;
61003;SDS011;46889;37.310;13.582;2023-01-31T20:55:21;8.20;;;2.63;;
61003;SDS011;46889;37.310;13.582;2023-01-31T20:57:47;4.93;;;2.70;;
61003;SDS011;46889;37.310;13.582;2023-01-31T21:00:19;8.95;;;3.08;;
61003;SDS011;46889;37.310;13.582;2023-01-31T21:02:46;6.00;;;2.70;;
61003;SDS011;46889;37.310;13.582;2023-01-31T21:07:39;5.45;;;2.20;;
61003;SDS011;46889;37.310;13.582;2023-01-31T21:10:06;6.35;;;2.78;;
61003;SDS011;46889;37.310;13.582;2023-01-31T21:12:34;6.47;;;2.53;;
61003;SDS011;46889;37.310;13.582;2023-01-31T21:15:00;9.73;;;3.23;;
61003;SDS011;46889;37.310;13.582;2023-01-31T21:17:26;13.02;;;3.38;;
61003;SDS011;46889;37.310;13.582;2023-01-31T21:19:52;6.30;;;3.13;;
61003;SDS011;46889;37.310;13.582;2023-01-31T21:22:18;6.90;;;3.05;;
61003;SDS011;46889;37.310;13.582;2023-01-31T21:24:44;10.02;;;2.95;;
61003;SDS011;46889;37.310;13.582;2023-01-31T21:27:10;5.35;;;2.35;;
61003;SDS011;46889;37.310;13.582;2023-01-31T21:29:37;7.72;;;2.47;;
61003;SDS011;46889;37.310;13.582;2023-01-31T21:32:04;7.05;;;2.60;;
61003;SDS011;46889;37.310;13.582;2023-01-31T21:34:30;5.95;;;2.40;;
61003;SDS011;46889;37.310;13.582;2023-01-31T21:36:58;8.25;;;2.47;;
61003;SDS011;46889;37.310;13.582;2023-01-31T21:39:24;6.43;;;2.33;;
61003;SDS011;46889;37.310;13.582;2023-01-31T21:41:51;5.90;;;2.35;;
61003;SDS011;46889;37.310;13.582;2023-01-31T21:44:35;7.20;;;2.60;;
61003;SDS011;46889;37.310;13.582;2023-01-31T21:47:02;6.95;;;2.65;;
61003;SDS011;46889;37.310;13.582;2023-01-31T21:49:28;4.70;;;2.10;;
61003;SDS011;46889;37.310;13.582;2023-01-31T21:51:54;6.03;;;2.70;;
61003;SDS011;46889;37.310;13.582;2023-01-31T21:54:20;6.82;;;2.30;;
61003;SDS011;46889;37.310;13.582;2023-01-31T21:56:46;5.60;;;2.30;;
61003;SDS011;46889;37.310;13.582;2023-01-31T21:59:12;6.18;;;2.28;;
61003;SDS011;46889;37.310;13.582;2023-01-31T22:01:39;5.88;;;2.60;;
61003;SDS011;46889;37.310;13.582;2023-01-31T22:04:05;7.18;;;2.33;;
61003;SDS011;46889;37.310;13.582;2023-01-31T22:06:40;4.38;;;2.28;;
61003;SDS011;46889;37.310;13.582;2023-01-31T22:09:08;6.50;;;2.70;;
61003;SDS011;46889;37.310;13.582;2023-01-31T22:11:36;6.47;;;2.70;;
61003;SDS011;46889;37.310;13.582;2023-01-31T22:14:07;7.18;;;2.72;;
61003;SDS011;46889;37.310;13.582;2023-01-31T22:16:35;8.23;;;2.95;;
61003;SDS011;46889;37.310;13.582;2023-01-31T22:19:01;5.88;;;2.70;;
61003;SDS011;46889;37.310;13.582;2023-01-31T22:21:28;7.63;;;2.60;;
61003;SDS011;46889;37.310;13.582;2023-01-31T22:23:56;8.13;;;3.03;;
61003;SDS011;46889;37.310;13.582;2023-01-31T22:26:28;10.82;;;3.78;;
61003;SDS011;46889;37.310;13.582;2023-01-31T22:29:02;6.60;;;2.75;;
61003;SDS011;46889;37.310;13.582;2023-01-31T22:31:30;9.27;;;3.20;;
61003;SDS011;46889;37.310;13.582;2023-01-31T22:33:57;9.23;;;2.78;;
61003;SDS011;46889;37.310;13.582;2023-01-31T22:36:24;8.95;;;2.60;;
61003;SDS011;46889;37.310;13.582;2023-01-31T22:38:51;9.38;;;2.55;;
61003;SDS011;46889;37.310;13.582;2023-01-31T22:41:18;4.53;;;2.42;;
61003;SDS011;46889;37.310;13.582;2023-01-31T22:43:45;6.82;;;2.53;;
61003;SDS011;46889;37.310;13.582;2023-01-31T22:46:14;6.72;;;2.60;;
61003;SDS011;46889;37.310;13.582;2023-01-31T22:48:44;8.68;;;2.53;;
61003;SDS011;46889;37.310;13.582;2023-01-31T22:51:14;6.13;;;2.45;;
61003;SDS011;46889;37.310;13.582;2023-01-31T22:53:42;7.28;;;2.65;;
61003;SDS011;46889;37.310;13.582;2023-01-31T22:56:12;10.07;;;3.53;;
61003;SDS011;46889;37.310;13.582;2023-01-31T22:58:40;7.60;;;2.90;;
61003;SDS011;46889;37.310;13.582;2023-01-31T23:03:46;8.43;;;2.58;;
61003;SDS011;46889;37.310;13.582;2023-01-31T23:06:13;6.28;;;2.22;;
61003;SDS011;46889;37.310;13.582;2023-01-31T23:08:41;5.63;;;2.22;;
61003;SDS011;46889;37.310;13.582;2023-01-31T23:11:14;6.07;;;2.33;;
61003;SDS011;46889;37.310;13.582;2023-01-31T23:13:41;7.85;;;2.88;;
61003;SDS011;46889;37.310;13.582;2023-01-31T23:16:08;4.13;;;2.38;;
61003;SDS011;46889;37.310;13.582;2023-01-31T23:18:38;5.43;;;2.25;;
61003;SDS011;46889;37.310;13.582;2023-01-31T23:21:08;6.13;;;2.50;;
61003;SDS011;46889;37.310;13.582;2023-01-31T23:23:40;4.72;;;2.30;;
61003;SDS011;46889;37.310;13.582;2023-01-31T23:26:07;10.43;;;2.70;;
61003;SDS011;46889;37.310;13.582;2023-01-31T23:28:34;9.15;;;2.95;;
61003;SDS011;46889;37.310;13.582;2023-01-31T23:31:00;8.13;;;2.60;;
61003;SDS011;46889;37.310;13.582;2023-01-31T23:33:26;11.73;;;2.70;;
61003;SDS011;46889;37.310;13.582;2023-01-31T23:35:52;5.93;;;2.22;;
61003;SDS011;46889;37.310;13.582;2023-01-31T23:38:18;5.82;;;2.22;;
61003;SDS011;46889;37.310;13.582;2023-01-31T23:40:51;9.27;;;2.67;;
61003;SDS011;46889;37.310;13.582;2023-01-31T23:43:18;6.13;;;2.40;;
61003;SDS011;46889;37.310;13.582;2023-01-31T23:45:44;7.05;;;2.63;;
61003;SDS011;46889;37.310;13.582;2023-01-31T23:48:12;8.82;;;2.40;;
61003;SDS011;46889;37.310;13.582;2023-01-31T23:50:38;7.05;;;2.70;;
61003;SDS011;46889;37.310;13.582;2023-01-31T23:53:05;6.40;;;2.30;;
61003;SDS011;46889;37.310;13.582;2023-01-31T23:55:31;6.80;;;2.33;;
61003;SDS011;46889;37.310;13.582;2023-01-31T23:57:57;5.65;;;2.63;;
